Chance — 2EGH2 — position and weather

sailwx.info

Track history (hours):
 
Tides and Currents Weather Stations Pressure Air Temp Water Temp Dewpoint Dewpoint Depression Visibility Wind Speed Wind Dir Waves Ship Positions

Chance

Last reported at 2017-Aug-28 06:06 UTC. Time now 2017-Sep-19 22:42 UTC.
Position N 48°38' W 002°15'.
Warning: this ship's position is 22 days out of date.

Length 10 m.

Type: Sailing vessel. MMSI: 235094057.

Date/timePositionNaut miles runAvg speedWind from/ knotsBaromVisibWave heightAir tempDewpointWater temp
2017-Aug-28 06:06N 48°38' W 002°15'0 0.0
2017-Aug-27 10:02N 48°38' W 002°15'0 0.0
2017-Aug-27 10:00N 48°38' W 002°15'2 2.9
2017-Aug-27 09:28N 48°40' W 002°16'2 4.2
2017-Aug-27 08:53N 48°41' W 002°19'2 5.6
2017-Aug-27 08:30N 48°42' W 002°22'4 7.4
2017-Aug-27 07:59N 48°42' W 002°27'4 7.2
2017-Aug-27 07:27N 48°41' W 002°33'4 6.6
2017-Aug-27 06:55N 48°41' W 002°39'2 6.0
2017-Aug-27 06:30N 48°40' W 002°42'1 2.8
2017-Aug-27 05:59N 48°41' W 002°44'1 2.7
2017-Aug-27 05:30N 48°40' W 002°46'2 4.1
2017-Aug-27 05:01N 48°40' W 002°49'1 1.9
2017-Aug-27 04:29N 48°39' W 002°49'0 0.0
2017-Aug-26 18:16N 48°39' W 002°49'0 0.0
2017-Aug-26 17:58N 48°39' W 002°49'0 0.0
2017-Aug-25 10:06N 48°39' W 002°49'0 0.0
2017-Aug-25 10:00N 48°39' W 002°49'1 1.4
2017-Aug-25 09:26N 48°40' W 002°49'2 4.6
2017-Aug-25 09:00N 48°41' W 002°51'2 4.9
2017-Aug-25 08:30N 48°44' W 002°52'1 1.9
2017-Aug-25 07:51N 48°45' W 002°53'1 2.0
2017-Aug-25 07:24N 48°45' W 002°54'1 3.1
2017-Aug-25 07:00N 48°47' W 002°55'3 6.7
2017-Aug-25 06:29N 48°49' W 002°58'3 4.5
2017-Aug-25 05:56N 48°51' W 003°00'  
2017-Aug-21 11:27N 48°41' W 004°34'3 6.1
2017-Aug-21 10:58N 48°39' W 004°37'2 0.1
2017-Aug-20 12:25N 48°37' W 004°36'3 6.0
2017-Aug-20 12:00N 48°37' W 004°39'4 8.4
2017-Aug-20 11:30N 48°36' W 004°45'4 6.8
2017-Aug-20 10:59N 48°33' W 004°48'3 6.9
2017-Aug-20 10:30N 48°30' W 004°50'3 5.3
2017-Aug-20 10:00N 48°27' W 004°51'3 5.7
2017-Aug-20 09:29N 48°25' W 004°49'3 5.2
2017-Aug-20 08:59N 48°22' W 004°49'2 3.7
2017-Aug-20 08:30N 48°20' W 004°48'2 4.9
2017-Aug-20 08:00N 48°19' W 004°45'3 7.0
2017-Aug-20 07:30N 48°18' W 004°40'3 5.7
2017-Aug-20 07:00N 48°17' W 004°36'0 0.0
2017-Aug-19 17:10N 48°17' W 004°36'0 0.0
2017-Aug-19 17:00N 48°17' W 004°36'2 4.0
2017-Aug-19 16:30N 48°17' W 004°39'3 5.2
2017-Aug-19 16:00N 48°15' W 004°41'3 5.7
2017-Aug-19 15:31N 48°12' W 004°43'3 5.6
2017-Aug-19 15:00N 48°09' W 004°44'4 4.3
2017-Aug-19 14:00N 48°05' W 004°45'2 4.7
2017-Aug-19 13:30N 48°03' W 004°46'3 5.2
2017-Aug-19 13:00N 48°01' W 004°43'3 6.4
2017-Aug-19 12:30N 47°59' W 004°40'4 6.7
2017-Aug-19 11:58N 47°56' W 004°36'6 6.4
2017-Aug-19 10:58N 47°51' W 004°30'7 6.5
2017-Aug-19 09:53N 47°46' W 004°22'11 5.4
2017-Aug-19 07:53N 47°47' W 004°06'3 3.8
2017-Aug-19 06:58N 47°49' W 004°02'3 3.1
2017-Aug-19 05:54N 47°50' W 003°57'  
Track history (hours):
 
Tides and Currents Weather Stations Pressure Air Temp Water Temp Dewpoint Dewpoint Depression Visibility Wind Speed Wind Dir Waves Ship Positions

Chance

Last reported at 2017-Aug-28 06:06 UTC. Time now 2017-Sep-19 22:42 UTC.
Position N 48°38' W 002°15'.
Warning: this ship's position is 22 days out of date.

Length 10 m.

Type: Sailing vessel. MMSI: 235094057.

Date/timePositionNaut miles runAvg speedWind from/ knotsBaromVisibWave heightAir tempDewpointWater temp
2017-Aug-28 06:06N 48°38' W 002°15'0 0.0
2017-Aug-27 10:02N 48°38' W 002°15'0 0.0
2017-Aug-27 10:00N 48°38' W 002°15'2 2.9
2017-Aug-27 09:28N 48°40' W 002°16'2 4.2
2017-Aug-27 08:53N 48°41' W 002°19'2 5.6
2017-Aug-27 08:30N 48°42' W 002°22'4 7.4
2017-Aug-27 07:59N 48°42' W 002°27'4 7.2
2017-Aug-27 07:27N 48°41' W 002°33'4 6.6
2017-Aug-27 06:55N 48°41' W 002°39'2 6.0
2017-Aug-27 06:30N 48°40' W 002°42'1 2.8
2017-Aug-27 05:59N 48°41' W 002°44'1 2.7
2017-Aug-27 05:30N 48°40' W 002°46'2 4.1
2017-Aug-27 05:01N 48°40' W 002°49'1 1.9
2017-Aug-27 04:29N 48°39' W 002°49'0 0.0
2017-Aug-26 18:16N 48°39' W 002°49'0 0.0
2017-Aug-26 17:58N 48°39' W 002°49'0 0.0
2017-Aug-25 10:06N 48°39' W 002°49'0 0.0
2017-Aug-25 10:00N 48°39' W 002°49'1 1.4
2017-Aug-25 09:26N 48°40' W 002°49'2 4.6
2017-Aug-25 09:00N 48°41' W 002°51'2 4.9
2017-Aug-25 08:30N 48°44' W 002°52'1 1.9
2017-Aug-25 07:51N 48°45' W 002°53'1 2.0
2017-Aug-25 07:24N 48°45' W 002°54'1 3.1
2017-Aug-25 07:00N 48°47' W 002°55'3 6.7
2017-Aug-25 06:29N 48°49' W 002°58'3 4.5
2017-Aug-25 05:56N 48°51' W 003°00'  
2017-Aug-21 11:27N 48°41' W 004°34'3 6.1
2017-Aug-21 10:58N 48°39' W 004°37'2 0.1
2017-Aug-20 12:25N 48°37' W 004°36'3 6.0
2017-Aug-20 12:00N 48°37' W 004°39'4 8.4
2017-Aug-20 11:30N 48°36' W 004°45'4 6.8
2017-Aug-20 10:59N 48°33' W 004°48'3 6.9
2017-Aug-20 10:30N 48°30' W 004°50'3 5.3
2017-Aug-20 10:00N 48°27' W 004°51'3 5.7
2017-Aug-20 09:29N 48°25' W 004°49'3 5.2
2017-Aug-20 08:59N 48°22' W 004°49'2 3.7
2017-Aug-20 08:30N 48°20' W 004°48'2 4.9
2017-Aug-20 08:00N 48°19' W 004°45'3 7.0
2017-Aug-20 07:30N 48°18' W 004°40'3 5.7
2017-Aug-20 07:00N 48°17' W 004°36'0 0.0
2017-Aug-19 17:10N 48°17' W 004°36'0 0.0
2017-Aug-19 17:00N 48°17' W 004°36'2 4.0
2017-Aug-19 16:30N 48°17' W 004°39'3 5.2
2017-Aug-19 16:00N 48°15' W 004°41'3 5.7
2017-Aug-19 15:31N 48°12' W 004°43'3 5.6
2017-Aug-19 15:00N 48°09' W 004°44'4 4.3
2017-Aug-19 14:00N 48°05' W 004°45'2 4.7
2017-Aug-19 13:30N 48°03' W 004°46'3 5.2
2017-Aug-19 13:00N 48°01' W 004°43'3 6.4
2017-Aug-19 12:30N 47°59' W 004°40'4 6.7
2017-Aug-19 11:58N 47°56' W 004°36'6 6.4
2017-Aug-19 10:58N 47°51' W 004°30'7 6.5
2017-Aug-19 09:53N 47°46' W 004°22'11 5.4
2017-Aug-19 07:53N 47°47' W 004°06'3 3.8
2017-Aug-19 06:58N 47°49' W 004°02'3 3.1
2017-Aug-19 05:54N 47°50' W 003°57'  

Dump ship's entire track history